Weather observations for the past three days for
Le Mars Municipal Airport
Metric (Imperial)
Date Time (cdt) Wind (kph) Vis. (km) Weather Sky Cond. Temperature (ºC) Relative Humidity Wind Chill (°C) Heat Index (°C) Pressure Precipitation (cm)
Air Dwpt 6 hour altimeter (cm) sea level (mb) 1 hr 3 hr 6 hr
Max. Min.
06 00:35 N 11 16.09 Fair CLR 4 -5 52% 2 76.12 0.0
06 00:15 N 9 16.09 Fair CLR 4 -6 48% 2 76.12 0.0
05 23:55 N 9 16.09 Fair CLR 4 -6 48% 2 76.1 0.0
05 23:35 N 11 16.09 Fair CLR 4 -6 48% 2 76.1 0.0
05 23:15 NW 9 16.09 Fair CLR 5 -6 45% 3 76.12 0.0
05 22:55 NW 9 16.09 Fair CLR 5 -6 45% 3 76.12 0.0
05 22:35 NW 7 16.09 Fair CLR 6 -6 42% 5 76.12 0.0
05 22:15 N 11 16.09 Fair CLR 6 -6 42% 4 76.1 0.0
05 21:55 N 9 16.09 Fair CLR 7 -6 39% 5 76.07 0.0
05 21:35 NW 9 16.09 A Few Clouds FEW070 FEW080 7 -6 39% 5 76.07 0.0
05 21:15 NW 9 16.09 A Few Clouds FEW080 8 -7 34% 7 76.02 0.0
05 20:55 N 9 G 20 16.09 Partly Cloudy SCT080 9 -7 32% 8 76.02 0.0
05 20:35 NW 15 16.09 Fair CLR 9 -7 32% 7 76 0.0
05 20:15 NW 17 G 28 16.09 A Few Clouds FEW080 10 -8 28% 8 76 0.0
05 19:55 N 22 G 33 16.09 A Few Clouds FEW080 10 -7 30% 7 75.97 0.0
05 19:35 NW 24 16.09 Partly Cloudy SCT080 11 -7 28% 75.97 0.0
05 19:15 NW 26 16.09 Partly Cloudy SCT080 11 -8 26% 75.95 0.0
05 18:55 N 24 16.09 A Few Clouds FEW080 11 -8 26% 75.92 0.0
05 18:35 NW 26 16.09 Mostly Cloudy BKN080 12 -8 24% 75.92 0.0
05 18:15 NW 28 G 39 16.09 Mostly Cloudy BKN080 12 -8 24% 75.92 0.0
05 17:55 NW 22 G 37 16.09 Fair CLR 12 -8 24% 75.9 0.0
05 17:35 NW 30 G 39 16.09 Fair CLR 12 -8 24% 75.9 0.0
05 17:15 NW 20 G 43 16.09 A Few Clouds FEW075 12 -8 24% 75.9 0.0
05 16:55 NW 20 G 35 16.09 A Few Clouds FEW075 11 -8 26% 75.92 0.0
05 16:35 NW 28 G 41 16.09 A Few Clouds FEW070 12 -7 26% 75.92 0.0
05 16:15 NW 30 16.09 Mostly Cloudy BKN070 13 -7 24% 75.92 0.0
05 15:55 NW 20 G 37 16.09 Partly Cloudy SCT070 12 -6 28% 75.92 0.0
05 15:35 NW 35 G 46 16.09 A Few Clouds and Breezy FEW070 12 -7 26% 75.95 0.0
05 15:15 NW 30 G 46 16.09 Partly Cloudy SCT070 12 -7 26% 75.97 0.0
05 14:55 W 28 G 39 16.09 Mostly Cloudy BKN070 12 -7 26% 75.97 0.0
05 14:35 NW 30 G 41 16.09 Mostly Cloudy BKN070 12 -6 28% 75.97 0.0
05 14:15 NW 22 G 41 16.09 Mostly Cloudy BKN070 11 -6 30% 75.97 0.0
05 13:55 NW 30 G 48 16.09 Mostly Cloudy BKN065 11 -6 30% 75.97 0.0
05 13:35 W 28 G 39 16.09 Overcast OVC070 11 -6 30% 75.97 0.0
05 13:15 NW 28 G 46 16.09 Mostly Cloudy BKN070 11 -6 30% 76 0.0
05 12:55 NW 30 G 48 16.09 Mostly Cloudy BKN070 12 -6 28% 75.97 0.0
05 12:35 NW 28 G 46 16.09 Mostly Cloudy BKN065 BKN080 11 -6 30% 75.97 0.0
05 11:55 NW 26 G 37 16.09 Partly Cloudy SCT065 10 -6 32% 7 76 0.0
05 11:35 NW 26 16.09 A Few Clouds FEW065 10 -6 32% 7 75.97 0.0
05 11:15 NW 19 G 35 16.09 Fair CLR 10 -6 32% 8 75.97 0.0
05 10:55 NW 19 G 33 16.09 Fair CLR 9 -6 34% 7 75.97 0.0
05 10:35 NW 20 16.09 Fair CLR 9 -4 40% 6 76 0.0
05 10:15 NW 13 G 24 16.09 Fair CLR 9 -3 43% 7 76 0.0
05 09:55 NW 15 16.09 Fair CLR 9 -3 43% 7 75.97 0.0
05 09:35 NW 13 16.09 Fair CLR 8 -3 46% 6 75.97 0.0
05 09:15 NW 13 16.09 Fair CLR 8 -3 46% 6 75.95 0.0
05 08:55 Vrbl 11 16.09 Fair CLR 7 -3 49% 5 75.95 0.0
05 08:35 NW 17 16.09 Fair CLR 7 -2 53% 4 75.92 0.0
05 08:15 NW 9 16.09 Fair CLR 7 -1 57% 5 75.9 0.0
05 07:35 Calm 16.09 Fair CLR 4 1 81% 75.87 0.0
05 07:15 Calm 16.09 Fair CLR 3 2 93% 75.87 0.0
05 06:55 Calm 16.09 Fair CLR 2 -1 81% 75.84 0.0
05 06:15 Calm 16.09 Fair CLR 3 -2 70% 75.79 0.0
05 05:55 Calm 16.09 Fair CLR 4 -2 65% 75.79 0.0
05 05:35 N 9 16.09 Fair CLR 4 -2 65% 2 75.77 0.0
05 05:15 N 7 16.09 Fair CLR 4 -2 65% 2 75.74 0.0
05 04:55 N 7 16.09 Fair CLR 4 -2 65% 2 75.74 0.0
05 04:35 N 13 16.09 Fair CLR 4 -2 65% 1 75.72 0.0
05 04:15 NW 11 16.09 Fair CLR 5 -2 61% 3 75.72 0.0
05 03:55 NW 11 16.09 Fair CLR 5 -2 61% 3 75.72 0.0
05 03:35 NW 7 16.09 Fair CLR 5 -2 61% 4 75.69 0.0
05 03:15 NW 11 16.09 Fair CLR 6 -2 57% 4 75.69 0.0
05 02:55 NW 7 16.09 Fair CLR 6 -2 57% 5 75.67 0.0
05 02:35 NW 7 16.09 Fair CLR 6 -2 57% 5 75.69 0.0
05 02:15 Calm 16.09 Fair CLR 7 -1 57% 75.67 0.0
05 01:55 Calm 16.09 Fair CLR 7 -1 57% 75.67 0.0
05 01:35 Calm 16.09 Fair CLR 8 -1 53% 75.67 0.0
05 01:15 NW 6 16.09 Fair CLR 9 -1 50% 75.67 0.0
05 00:55 NW 7 16.09 Fair CLR 9 -1 50% 8 75.67 0.0
05 00:35 NW 9 16.09 Partly Cloudy SCT120 9 -1 50% 8 75.64 0.0
05 00:15 NW 9 16.09 A Few Clouds FEW120 9 -1 50% 8 75.67 0.0
04 23:55 NW 7 16.09 Fair CLR 9 -1 50% 8 75.67 0.0
04 23:35 Calm 16.09 Fair CLR 9 -1 50% 75.64 0.0
04 23:15 NW 7 16.09 Fair CLR 10 -2 43% 9 75.67 0.0
04 22:55 NW 6 16.09 Fair CLR 10 -2 43% 75.67 0.0
04 22:35 Calm 16.09 Fair CLR 10 -2 43% 75.67 0.0
04 22:15 NW 9 16.09 Fair CLR 10 -2 43% 9 75.67 0.0
04 21:55 NW 7 16.09 Fair CLR 11 -2 41% 75.67 0.0
04 21:35 NW 7 16.09 Fair CLR 11 -2 41% 75.62 0.0
04 21:15 NW 9 16.09 Fair CLR 11 -3 38% 75.62 0.0
04 20:55 NW 9 16.09 Fair CLR 12 -3 35% 75.62 0.0
04 20:35 NW 17 16.09 Fair CLR 12 -3 35% 75.62 0.0
04 20:15 NW 19 G 30 16.09 Fair CLR 13 -3 33% 75.59 0.0
04 19:55 NW 20 G 33 16.09 Fair CLR 13 -3 33% 75.59 0.0
04 19:35 NW 22 G 37 16.09 Partly Cloudy SCT110 13 -3 33% 75.59 0.0
04 19:15 NW 31 G 44 16.09 Overcast FEW075 OVC110 14 -3 31% 75.54 0.0
04 18:55 NW 24 16.09 Mostly Cloudy FEW075 BKN110 14 -2 33% 75.51 0.0
04 18:35 NW 26 G 39 16.09 Mostly Cloudy FEW065 FEW075 BKN100 14 -2 33% 75.51 0.0
04 18:15 NW 17 G 37 16.09 Mostly Cloudy FEW050 BKN065 BKN075 13 -1 38% 75.49 0.0
04 17:55 NW 28 G 43 16.09 Mostly Cloudy FEW050 FEW060 BKN100 14 -2 33% 75.49 0.0
04 17:35 NW 28 G 44 16.09 Mostly Cloudy FEW070 FEW080 BKN110 14 -1 36% 75.49 0.0
04 17:15 N 30 G 43 16.09 Mostly Cloudy FEW070 SCT080 BKN120 15 -1 34% 75.44 0.0
04 16:55 NW 31 G 54 16.09 Partly Cloudy SCT120 15 -1 34% 75.46 0.0
04 16:35 NW 35 G 54 16.09 Partly Cloudy and Breezy SCT120 18 -1 28% 75.41 0.0
04 16:15 NW 22 G 50 16.09 A Few Clouds FEW120 18 -1 28% 75.39 0.0
04 15:55 NW 28 G 46 16.09 Fair CLR 20 -1 24% 75.36 0.0
04 15:35 NW 33 G 52 16.09 Fair and Breezy CLR 20 -1 24% 75.34 0.0
04 15:15 NW 35 G 44 16.09 Fair and Breezy CLR 21 0 25% 75.31 0.0
04 14:55 NW 37 G 54 16.09 Fair and Breezy CLR 20 -1 24% 75.31 0.0
04 14:35 NW 31 G 46 16.09 Fair CLR 21 -1 23% 75.29 0.0
04 14:15 NW 35 G 44 16.09 Fair and Breezy CLR 21 -1 23% 75.29 0.0
04 13:55 NW 28 G 41 16.09 Fair CLR 21 -1 23% 75.29 0.0
04 13:35 NW 28 G 46 16.09 Fair CLR 21 0 25% 75.26 0.0
04 13:15 NW 33 16.09 Fair and Breezy CLR 21 0 25% 75.26 0.0
04 12:55 NW 31 G 41 16.09 Fair CLR 21 0 25% 75.23 0.0
04 12:35 N 24 G 46 16.09 Fair CLR 21 0 25% 75.23 0.0
04 12:15 N 24 G 35 16.09 Fair CLR 21 0 25% 75.23 0.0
04 11:55 N 24 16.09 Fair CLR 21 0 25% 75.23 0.0
04 11:35 N 24 G 41 16.09 Fair CLR 21 0 25% 75.21 0.0
04 11:15 N 20 G 33 16.09 Fair CLR 20 4 35% 75.16 0.0
04 10:55 N 31 16.09 Fair CLR 19 4 37% 75.13 0.0
04 10:35 N 22 G 37 16.09 Fair CLR 19 5 40% 75.13 0.0
04 10:15 NW 26 G 35 16.09 Fair CLR 19 6 43% 75.13 0.0
04 09:55 NW 24 G 43 16.09 Fair CLR 18 6 46% 75.11 0.0
04 09:35 NW 28 G 44 16.09 Fair CLR 19 6 43% 75.08 0.0
04 09:15 NW 28 G 39 16.09 Fair CLR 18 5 43% 75.08 0.0
04 08:55 W 24 16.09 Fair CLR 18 5 43% 75.06 0.0
04 08:35 SW 15 16.09 Fair CLR 17 5 45% 75.06 0.0
04 08:15 S 9 16.09 Fair CLR 15 6 55% 75.03 0.0
04 07:55 S 9 16.09 Fair CLR 13 5 59% 75.03 0.0
04 07:35 S 9 16.09 Fair CLR 11 5 67% 75.06 0.0
04 07:15 S 7 16.09 Fair CLR 9 5 76% 8 75.06 0.0
04 06:55 S 15 16.09 Fair CLR 8 4 76% 6 75.06 0.0
04 06:35 S 15 16.09 Fair CLR 8 4 76% 6 75.08 0.0
04 06:15 S 9 16.09 Fair CLR 9 4 71% 8 75.08 0.0
04 05:55 S 7 16.09 Fair CLR 10 4 67% 9 75.11 0.0
04 05:35 S 7 16.09 Fair CLR 10 4 67% 9 75.11 0.0
04 05:15 S 7 16.09 Mostly Cloudy BKN110 9 4 71% 8 75.11 0.0
04 04:55 S 7 16.09 Overcast OVC110 11 4 62% 75.13 0.0
04 04:35 Calm 16.09 Overcast OVC100 9 4 71% 75.13 0.0
04 04:15 S 9 16.09 Overcast OVC110 9 5 76% 8 75.16 0.0
04 03:55 S 6 16.09 Mostly Cloudy BKN110 8 5 82% 75.18 0.0
04 03:35 S 9 16.09 A Few Clouds FEW110 8 4 76% 7 75.18 0.0
04 03:15 Calm 16.09 Fair CLR 9 5 76% 75.21 0.0
04 02:55 S 9 16.09 Mostly Cloudy BKN100 9 5 76% 8 75.21 0.0
04 02:35 S 7 16.09 Mostly Cloudy BKN100 8 6 87% 7 75.23 0.0
04 02:15 Calm 16.09 Fair CLR 9 4 71% 75.23 0.0
04 01:55 Calm 16.09 Fair CLR 10 4 67% 75.29 0.0
04 01:35 S 11 16.09 Fair CLR 10 4 67% 9 75.31 0.0
04 01:15 Calm 16.09 Fair CLR 9 4 71% 75.34 0.0
04 00:55 S 6 16.09 Fair CLR 11 4 62% 75.34 0.0
04 00:35 Calm 16.09 Fair CLR 11 4 62% 75.36 0.0
04 00:15 S 6 16.09 Fair CLR 10 3 62% 75.36 0.0
03 23:55 Calm 16.09 Fair CLR 12 3 54% 75.39 0.0
03 23:35 Calm 16.09 Fair CLR 12 3 54% 75.41 0.0
03 23:15 S 6 16.09 Fair CLR 12 3 54% 75.41 0.0
03 22:55 S 6 16.09 Fair CLR 12 4 58% 75.46 0.0
03 22:35 Calm 16.09 Fair CLR 12 4 58% 75.46 0.0
03 22:15 Calm 16.09 Fair CLR 13 3 51% 75.46 0.0
03 21:55 Calm 16.09 Fair CLR 13 3 51% 75.46 0.0
03 21:35 Calm 16.09 Fair CLR 14 3 48% 75.46 0.0
03 21:15 Calm 16.09 Fair CLR 15 3 45% 75.49 0.0
03 20:55 S 7 16.09 Fair CLR 17 2 37% 75.49 0.0
03 20:35 S 6 16.09 Fair CLR 18 2 34% 75.49 0.0
03 20:15 SW 6 16.09 Fair CLR 19 1 30% 75.51 0.0
03 19:55 SW 9 16.09 Fair CLR 21 0 25% 75.51 0.0
03 19:35 W 9 16.09 Fair CLR 21 0 25% 75.54 0.0
03 19:15 W 9 16.09 Fair CLR 22 0 23% 75.54 0.0
03 18:55 W 11 G 22 16.09 Fair CLR 22 0 23% 75.54 0.0
03 18:35 W 19 16.09 Fair CLR 22 1 25% 75.57 0.0
03 18:15 W 19 16.09 Fair CLR 23 1 23% 75.57 0.0
03 17:55 NW 15 G 24 16.09 Fair CLR 23 0 22% 75.57 0.0
03 17:35 Vrbl 9 G 26 16.09 Fair CLR 23 0 22% 75.59 0.0
03 17:15 NW 19 G 28 16.09 Fair CLR 23 0 22% 75.59 0.0
03 16:55 W 20 16.09 Fair CLR 23 0 22% 75.59 0.0
03 16:35 Vrbl 11 G 30 16.09 Fair CLR 23 1 23% 75.62 0.0
03 16:15 W 17 G 28 16.09 Fair CLR 23 1 23% 75.62 0.0
03 15:55 N 15 G 26 16.09 Fair CLR 23 1 23% 75.64 0.0
03 15:35 NW 17 G 26 16.09 Fair CLR 23 1 23% 75.67 0.0
03 15:15 N 15 G 31 16.09 Fair CLR 23 1 23% 75.69 0.0
03 14:55 NW 22 16.09 Fair CLR 22 0 23% 75.72 0.0
03 14:35 NW 20 16.09 Fair CLR 22 1 25% 75.72 0.0
03 14:15 N 19 16.09 Fair CLR 22 0 23% 75.74 0.0
03 13:55 W 13 G 31 16.09 Fair CLR 21 1 27% 75.74 0.0
03 13:35 NW 24 G 33 16.09 Fair CLR 22 1 25% 75.77 0.0
03 13:15 NW 28 G 39 16.09 Fair CLR 22 1 25% 75.79 0.0
03 12:55 N 24 G 41 16.09 Fair CLR 21 1 27% 75.79 0.0
03 12:35 NW 22 G 41 16.09 Fair CLR 21 1 27% 75.82 0.0
03 12:15 N 28 G 39 16.09 Fair CLR 21 1 27% 75.79 0.0
03 11:55 N 26 G 48 16.09 Fair CLR 20 1 28% 75.79 0.0
03 11:35 N 31 16.09 Fair CLR 20 1 28% 75.79 0.0
03 11:15 N 28 G 43 16.09 Fair CLR 20 2 30% 75.79 0.0
03 10:55 N 30 G 46 16.09 Fair CLR 19 1 30% 75.79 0.0
03 10:35 N 33 16.09 Fair and Breezy CLR 20 2 30% 75.77 0.0
03 10:15 N 28 16.09 Fair CLR 19 2 32% 75.79 0.0
03 09:55 N 30 16.09 Fair CLR 18 3 37% 75.82 0.0
03 09:35 N 19 G 33 16.09 Fair CLR 17 3 39% 75.82 0.0
03 09:15 N 22 16.09 Fair CLR 16 3 42% 75.82 0.0
03 08:55 N 20 16.09 Fair CLR 16 3 42% 75.79 0.0
03 08:35 N 20 16.09 Fair CLR 14 3 48% 75.79 0.0
03 08:15 NW 15 G 28 16.09 Fair CLR 14 3 48% 75.77 0.0
03 07:55 NW 17 G 26 16.09 Fair CLR 13 3 51% 75.77 0.0
03 07:35 NW 17 16.09 Fair CLR 12 3 54% 75.74 0.0
03 07:15 NW 15 16.09 Fair CLR 11 3 58% 75.72 0.0
03 06:55 NW 11 16.09 Fair CLR 11 3 58% 75.69 0.0
03 06:35 NW 11 16.09 Fair CLR 10 3 62% 9 75.67 0.0
03 06:15 NW 9 16.09 Fair CLR 10 2 58% 9 75.64 0.0
03 05:55 Calm 16.09 Fair CLR 10 2 58% 75.64 0.0
03 05:35 W 11 16.09 Fair CLR 10 1 54% 9 75.64 0.0
03 05:15 Calm 16.09 Fair CLR 8 1 62% 75.62 0.0
03 04:55 Calm 16.09 Fair CLR 9 1 58% 75.62 0.0
03 04:35 Calm 16.09 A Few Clouds FEW110 9 1 58% 75.59 0.0
03 04:15 S 9 16.09 Partly Cloudy SCT110 10 0 50% 9 75.59 0.0
03 03:55 S 11 16.09 A Few Clouds FEW110 9 0 54% 8 75.59 0.0
03 03:35 S 17 16.09 Fair CLR 11 0 47% 75.59 0.0
03 03:15 S 19 16.09 Fair CLR 12 0 44% 75.59 0.0
03 02:55 S 11 16.09 Fair CLR 11 0 47% 75.62 0.0
03 02:35 S 22 16.09 Fair CLR 11 0 47% 75.59 0.0
03 02:15 S 13 16.09 Fair CLR 10 0 50% 8 75.67 0.0
03 01:55 S 11 16.09 Fair CLR 12 -1 41% 75.69 0.0
03 01:35 S 9 16.09 A Few Clouds FEW120 13 -1 38% 75.69 0.0
03 01:15 SE 17 16.09 Mostly Cloudy FEW075 BKN110 14 -1 36% 75.69 0.0
03 00:55 S 13 16.09 Overcast FEW075 BKN095 OVC110 14 -1 36% 75.72 0.0
Date Time (cdt) Wind (kph) Vis. (km) Weather Sky Cond. Air Dwpt Max. Min. Relative Humidity Wind Chill (°C) Heat Index (°C) altimeter (cm) sea level (mb) 1 hr 3 hr 6 hr
6 hour
Temperature (ºC) Pressure Precipitation (cm)